Time;durP1;ratioP1;P1;durP2;ratioP2;P2;SDS_P1;SDS_P2;PMS_P1;PMS_P2;Temp;Humidity;BMP_temperature;BMP_pressure;BME280_temperature;BME280_humidity;BME280_pressure;Samples;Min_cycle;Max_cycle;Signal;HPM_P1;HPM_P2
2023/03/10 00:01:57;;;;;;;56.47;30.50;;;3.80;99.90;;;;;;8368171;28;20186;-70
2023/03/10 00:05:58;;;;;;;58.23;31.50;;;3.80;99.90;;;;;;8365423;28;20181;-70
2023/03/10 00:09:59;;;;;;;58.47;32.53;;;3.80;99.90;;;;;;8365321;28;20224;-70
2023/03/10 00:13:59;;;;;;;53.10;30.60;;;3.80;99.90;;;;;;8366513;28;20284;-71
2023/03/10 00:18:00;;;;;;;62.03;33.03;;;3.70;99.90;;;;;;8368496;28;20292;-70
2023/03/10 00:22:04;;;;;;;54.43;31.60;;;3.60;99.90;;;;;;8366814;28;20189;-68
2023/03/10 00:26:04;;;;;;;57.53;32.33;;;3.50;99.90;;;;;;8367009;28;20252;-70
2023/03/10 00:30:06;;;;;;;63.43;35.53;;;3.40;99.90;;;;;;8366599;28;20217;-71
2023/03/10 00:34:07;;;;;;;69.73;37.93;;;3.40;99.90;;;;;;8366210;28;20185;-71
2023/03/10 00:38:08;;;;;;;68.30;35.47;;;3.30;99.90;;;;;;8368922;28;20240;-70
2023/03/10 00:42:09;;;;;;;68.43;38.33;;;3.30;99.90;;;;;;8361545;28;20220;-71
2023/03/10 00:46:10;;;;;;;70.77;37.10;;;3.30;99.90;;;;;;8367992;28;20304;-68
2023/03/10 00:50:11;;;;;;;78.70;40.60;;;3.30;99.90;;;;;;8361236;28;20215;-70
2023/03/10 00:54:12;;;;;;;69.93;35.93;;;3.20;99.90;;;;;;8364609;28;20187;-69
2023/03/10 00:58:13;;;;;;;75.43;39.20;;;3.20;99.90;;;;;;8366270;28;20189;-70
2023/03/10 01:02:13;;;;;;;75.00;39.10;;;3.10;99.90;;;;;;8356573;28;20212;-70
2023/03/10 01:06:14;;;;;;;69.73;35.07;;;3.10;99.90;;;;;;8365025;28;20209;-70
2023/03/10 01:10:15;;;;;;;76.00;38.53;;;3.10;99.90;;;;;;8364250;28;20314;-70
2023/03/10 01:14:17;;;;;;;74.30;36.63;;;3.00;99.90;;;;;;8357936;28;20197;-70
2023/03/10 01:18:19;;;;;;;65.13;34.40;;;3.00;99.90;;;;;;8365544;28;20197;-71
2023/03/10 01:22:20;;;;;;;76.73;37.23;;;2.90;99.90;;;;;;8360047;28;20215;-70
2023/03/10 01:26:21;;;;;;;70.63;36.77;;;2.90;99.90;;;;;;8364529;28;20244;-70
2023/03/10 01:30:22;;;;;;;70.93;37.37;;;2.90;99.90;;;;;;8359722;28;20550;-70
2023/03/10 01:34:23;;;;;;;70.77;35.40;;;3.00;99.90;;;;;;8369306;28;20181;-69
2023/03/10 01:38:23;;;;;;;71.63;37.23;;;3.00;99.90;;;;;;8360491;28;20245;-71
2023/03/10 01:42:24;;;;;;;69.60;36.20;;;3.00;99.90;;;;;;8366029;28;20210;-70
2023/03/10 01:46:39;;;;;;;71.33;35.50;;;3.00;99.90;;;;;;8364086;28;20185;-71
2023/03/10 01:50:41;;;;;;;66.27;33.87;;;3.10;99.90;;;;;;8359755;28;20201;-70
2023/03/10 01:55:10;;;;;;;68.77;34.57;;;3.10;99.90;;;;;;8360254;28;20185;-71
2023/03/10 01:59:12;;;;;;;64.33;33.80;;;3.20;99.90;;;;;;8360036;28;20204;-70
2023/03/10 02:03:25;;;;;;;55.20;30.80;;;3.20;99.90;;;;;;8361120;28;20200;-70
2023/03/10 02:07:29;;;;;;;54.70;29.47;;;3.20;99.90;;;;;;8364062;28;20197;-69
2023/03/10 02:11:29;;;;;;;58.87;29.77;;;3.20;99.90;;;;;;8367749;28;20282;-70
2023/03/10 02:15:32;;;;;;;54.57;28.57;;;3.10;99.90;;;;;;8362174;28;20177;-70
2023/03/10 02:19:57;;;;;;;50.67;25.87;;;3.10;99.90;;;;;;8375909;28;20292;-69
2023/03/10 02:24:16;;;;;;;45.93;23.53;;;3.20;99.90;;;;;;8379276;28;20315;-71
2023/03/10 02:28:17;;;;;;;42.07;22.57;;;3.30;99.90;;;;;;8363649;28;20220;-69
2023/03/10 02:32:21;;;;;;;35.33;20.23;;;3.40;99.90;;;;;;8360282;28;20182;-69
2023/03/10 02:36:23;;;;;;;32.87;18.30;;;3.50;99.90;;;;;;8362076;28;20216;-70
2023/03/10 02:40:36;;;;;;;29.20;16.60;;;3.70;99.90;;;;;;8367547;28;20185;-70
2023/03/10 02:44:38;;;;;;;24.07;14.03;;;3.80;99.90;;;;;;8365302;28;20323;-68
2023/03/10 02:48:39;;;;;;;20.20;12.40;;;4.00;99.90;;;;;;8359989;28;20221;-70
2023/03/10 02:52:49;;;;;;;21.80;12.20;;;4.10;99.90;;;;;;8364549;28;20188;-69
2023/03/10 02:56:50;;;;;;;17.60;10.53;;;4.30;99.90;;;;;;8359425;28;20685;-70
2023/03/10 03:00:51;;;;;;;18.50;11.27;;;4.40;99.90;;;;;;8364333;28;20189;-70
2023/03/10 03:04:52;;;;;;;16.97;11.13;;;4.60;99.90;;;;;;8361183;28;20257;-68
2023/03/10 03:08:53;;;;;;;15.90;10.53;;;4.60;99.90;;;;;;8365434;28;20258;-70
2023/03/10 03:12:55;;;;;;;16.27;9.50;;;4.60;99.90;;;;;;8360083;28;20190;-71
2023/03/10 03:16:56;;;;;;;16.33;10.37;;;4.60;99.90;;;;;;8362601;28;20174;-69
2023/03/10 03:20:57;;;;;;;17.60;10.37;;;4.60;99.90;;;;;;8361138;28;20212;-71
2023/03/10 03:24:57;;;;;;;14.67;9.77;;;4.80;99.90;;;;;;8364211;28;20181;-72
2023/03/10 03:28:59;;;;;;;13.40;8.57;;;4.90;99.90;;;;;;8364981;28;20204;-70
2023/03/10 03:33:02;;;;;;;10.77;7.67;;;5.00;99.90;;;;;;8361041;28;20283;-70
2023/03/10 03:37:03;;;;;;;12.57;7.77;;;5.10;99.90;;;;;;8359261;28;20207;-69
2023/03/10 03:41:05;;;;;;;13.10;7.27;;;5.30;99.90;;;;;;8369367;28;20186;-69
2023/03/10 03:45:07;;;;;;;11.03;7.47;;;5.40;99.90;;;;;;8368482;28;20191;-70
2023/03/10 03:49:09;;;;;;;10.93;7.13;;;5.50;99.90;;;;;;8370601;28;20197;-70
2023/03/10 03:53:10;;;;;;;11.90;7.20;;;5.60;99.90;;;;;;8367721;28;20568;-70
2023/03/10 03:57:10;;;;;;;12.83;8.03;;;5.70;99.90;;;;;;8371051;28;20178;-71
2023/03/10 04:01:11;;;;;;;8.70;6.00;;;5.80;99.90;;;;;;8363126;28;20185;-71
2023/03/10 04:05:12;;;;;;;11.77;5.67;;;5.80;99.90;;;;;;8367174;28;20185;-70
2023/03/10 04:09:13;;;;;;;8.67;6.40;;;5.90;99.90;;;;;;8372001;28;20213;-70
2023/03/10 04:13:14;;;;;;;7.47;6.00;;;5.90;99.90;;;;;;8371682;28;20185;-71
2023/03/10 04:17:15;;;;;;;11.17;5.77;;;5.90;99.90;;;;;;8367476;28;20189;-69
2023/03/10 04:21:16;;;;;;;9.47;5.57;;;6.10;99.90;;;;;;8368169;28;20178;-70
2023/03/10 04:25:17;;;;;;;14.00;5.37;;;6.20;99.90;;;;;;8365921;28;20189;-71
2023/03/10 04:29:18;;;;;;;14.73;5.40;;;6.30;99.90;;;;;;8373105;28;20197;-70
2023/03/10 04:33:19;;;;;;;6.70;4.67;;;6.40;99.90;;;;;;8365196;28;20217;-71
2023/03/10 04:37:20;;;;;;;12.30;4.67;;;6.60;99.90;;;;;;8369146;28;20502;-69
2023/03/10 04:41:21;;;;;;;11.77;4.47;;;6.60;99.90;;;;;;8367531;28;20178;-69
2023/03/10 04:45:22;;;;;;;8.60;3.93;;;6.70;99.90;;;;;;8372352;28;20594;-69
2023/03/10 04:49:23;;;;;;;6.53;4.10;;;6.70;99.90;;;;;;8365002;28;20209;-70
2023/03/10 04:53:24;;;;;;;7.90;3.90;;;6.80;99.90;;;;;;8370854;28;20567;-70
2023/03/10 04:57:25;;;;;;;7.30;3.57;;;6.80;99.90;;;;;;8365562;28;20185;-70
2023/03/10 05:01:31;;;;;;;6.80;3.43;;;6.90;99.90;;;;;;8368686;28;20186;-71
2023/03/10 05:05:35;;;;;;;7.30;3.67;;;6.90;99.90;;;;;;8369162;28;20189;-71
2023/03/10 05:09:36;;;;;;;7.20;3.00;;;6.90;99.90;;;;;;8369293;28;20209;-71
2023/03/10 05:13:37;;;;;;;7.97;2.87;;;6.90;99.90;;;;;;8364813;28;20185;-70
2023/03/10 05:17:38;;;;;;;7.10;2.90;;;6.90;99.90;;;;;;8368602;28;20185;-69
2023/03/10 05:21:39;;;;;;;9.40;3.57;;;6.90;99.90;;;;;;8370337;28;20189;-71
2023/03/10 05:25:40;;;;;;;5.57;2.93;;;6.90;99.90;;;;;;8374747;28;20192;-70
2023/03/10 05:29:41;;;;;;;7.43;2.93;;;7.00;99.90;;;;;;8367460;28;20205;-72
2023/03/10 05:33:42;;;;;;;6.13;2.87;;;7.00;99.90;;;;;;8383771;28;20205;-70
2023/03/10 05:37:43;;;;;;;3.80;2.63;;;7.00;99.90;;;;;;8392621;28;20197;-73
2023/03/10 05:41:44;;;;;;;5.70;2.77;;;7.00;99.90;;;;;;8390296;28;20187;-73
2023/03/10 05:45:53;;;;;;;3.53;2.50;;;7.00;99.90;;;;;;8376696;28;20201;-73
2023/03/10 05:49:53;;;;;;;6.87;2.60;;;7.10;99.90;;;;;;8384062;28;20232;-73
2023/03/10 05:53:54;;;;;;;5.97;2.60;;;7.20;99.90;;;;;;8384876;28;20185;-74
2023/03/10 05:57:55;;;;;;;4.40;2.37;;;7.20;99.90;;;;;;8390468;28;20255;-73
2023/03/10 06:01:56;;;;;;;3.37;2.40;;;7.20;99.90;;;;;;8391649;28;20184;-73
2023/03/10 06:05:58;;;;;;;5.43;2.70;;;7.20;99.90;;;;;;8386492;28;20243;-73
2023/03/10 06:09:59;;;;;;;5.33;2.33;;;7.20;99.90;;;;;;8391209;28;20197;-74
2023/03/10 06:14:00;;;;;;;4.83;2.00;;;7.30;99.90;;;;;;8388324;28;20178;-72
2023/03/10 06:18:00;;;;;;;5.20;1.90;;;7.40;99.90;;;;;;8389121;28;21460;-73
2023/03/10 06:22:01;;;;;;;3.47;1.90;;;7.50;99.90;;;;;;8391944;28;20282;-75
2023/03/10 06:26:06;;;;;;;8.07;2.60;;;7.60;99.90;;;;;;8383181;28;20181;-73
2023/03/10 06:30:10;;;;;;;3.37;1.70;;;7.80;99.90;;;;;;8380148;28;20690;-74
2023/03/10 06:34:11;;;;;;;5.67;2.30;;;7.90;99.90;;;;;;8382833;28;20329;-72
2023/03/10 06:38:13;;;;;;;9.03;2.27;;;8.00;99.90;;;;;;8374461;28;20195;-74
2023/03/10 06:42:13;;;;;;;5.83;2.40;;;8.00;99.90;;;;;;8383654;28;20187;-73
2023/03/10 06:46:20;;;;;;;4.23;1.90;;;8.10;99.90;;;;;;8385998;28;20224;-75
2023/03/10 06:50:21;;;;;;;5.47;2.13;;;8.10;99.90;;;;;;8389076;28;20205;-73
2023/03/10 06:54:22;;;;;;;6.17;2.47;;;8.40;99.90;;;;;;8388377;28;20241;-73
2023/03/10 06:58:29;;;;;;;3.50;1.87;;;8.50;99.90;;;;;;8390427;28;20188;-74
2023/03/10 07:02:30;;;;;;;5.23;2.33;;;8.60;99.90;;;;;;8382340;28;20206;-74
2023/03/10 07:06:31;;;;;;;6.13;2.20;;;8.60;99.90;;;;;;8381253;28;20255;-74
2023/03/10 07:10:31;;;;;;;3.27;1.77;;;8.60;99.90;;;;;;8387289;28;20217;-74
2023/03/10 07:14:32;;;;;;;5.27;2.00;;;8.70;99.90;;;;;;8391328;28;20184;-75
2023/03/10 07:18:33;;;;;;;3.83;1.80;;;8.80;99.90;;;;;;8395670;28;20191;-74
2023/03/10 07:22:34;;;;;;;3.30;1.53;;;8.90;99.90;;;;;;8386563;28;20464;-75
2023/03/10 07:26:34;;;;;;;3.97;1.67;;;9.00;99.90;;;;;;8392107;28;20204;-74
2023/03/10 07:30:37;;;;;;;3.10;1.47;;;9.10;99.90;;;;;;8393523;28;20256;-72
2023/03/10 07:34:38;;;;;;;4.17;1.63;;;9.30;99.90;;;;;;8399377;28;20184;-73
2023/03/10 07:38:39;;;;;;;4.20;1.37;;;9.40;99.90;;;;;;8385334;28;20217;-73
2023/03/10 07:42:42;;;;;;;4.17;1.33;;;9.50;99.90;;;;;;8384389;28;20205;-72
2023/03/10 07:46:43;;;;;;;4.87;1.67;;;9.60;99.90;;;;;;8384299;28;20204;-72
2023/03/10 07:50:43;;;;;;;3.70;1.53;;;9.70;99.90;;;;;;8379126;28;20239;-73
2023/03/10 07:54:45;;;;;;;2.47;1.57;;;9.80;99.90;;;;;;8379931;28;20208;-73
2023/03/10 07:58:46;;;;;;;3.90;1.20;;;9.90;99.90;;;;;;8385603;28;20281;-73
2023/03/10 08:02:47;;;;;;;4.37;1.33;;;9.90;99.90;;;;;;8394020;28;20204;-73
2023/03/10 08:06:47;;;;;;;3.60;1.50;;;9.90;99.90;;;;;;8385769;28;20196;-72
2023/03/10 08:10:48;;;;;;;2.97;1.10;;;10.00;99.90;;;;;;8386642;28;20230;-72
2023/03/10 08:14:50;;;;;;;2.13;1.13;;;10.10;99.90;;;;;;8397902;28;20260;-73
2023/03/10 08:18:53;;;;;;;2.47;1.10;;;10.20;99.90;;;;;;8394636;28;20240;-73
2023/03/10 08:22:54;;;;;;;3.43;1.00;;;10.50;99.90;;;;;;8388110;28;20235;-72
2023/03/10 08:26:55;;;;;;;3.60;1.50;;;10.70;99.90;;;;;;8389336;28;20177;-72
2023/03/10 08:30:58;;;;;;;2.47;1.20;;;10.90;74.10;;;;;;8384912;28;20264;-72
2023/03/10 08:34:59;;;;;;;5.53;1.30;;;11.10;5.20;;;;;;8384169;28;20209;-73
2023/03/10 08:38:59;;;;;;;2.60;1.20;;;11.20;1.00;;;;;;8385427;28;20386;-73
2023/03/10 08:43:00;;;;;;;1.83;1.00;;;11.40;1.00;;;;;;8388603;28;20244;-74
2023/03/10 08:47:01;;;;;;;3.70;1.17;;;11.70;1.00;;;;;;8394894;28;20193;-73
2023/03/10 08:51:03;;;;;;;2.37;1.03;;;11.80;99.90;;;;;;8392551;28;20311;-72
2023/03/10 08:55:05;;;;;;;6.50;1.00;;;11.70;1.10;;;;;;8393103;28;20321;-72
2023/03/10 08:59:06;;;;;;;1.97;0.90;;;11.70;1.00;;;;;;8392311;28;20212;-72
2023/03/10 09:03:10;;;;;;;2.00;0.80;;;11.80;1.00;;;;;;8395564;28;20209;-71
2023/03/10 09:07:11;;;;;;;4.30;1.20;;;12.00;1.00;;;;;;8387789;28;20202;-72
2023/03/10 09:11:21;;;;;;;1.70;0.90;;;12.20;1.00;;;;;;8375148;28;20288;-73
2023/03/10 09:15:22;;;;;;;2.23;1.23;;;12.30;99.90;;;;;;8381600;28;20181;-74
2023/03/10 09:19:23;;;;;;;2.83;1.07;;;12.30;99.90;;;;;;8377338;28;20185;-73
2023/03/10 09:23:24;;;;;;;2.93;1.20;;;12.20;99.90;;;;;;8369079;28;20255;-73
2023/03/10 09:27:25;;;;;;;5.30;1.30;;;12.20;99.90;;;;;;8374806;28;20174;-75
2023/03/10 09:31:30;;;;;;;3.40;1.30;;;12.30;99.90;;;;;;8373905;28;20280;-74
2023/03/10 09:35:31;;;;;;;4.20;1.20;;;12.50;99.90;;;;;;8373506;28;20228;-73
2023/03/10 09:39:32;;;;;;;2.00;1.00;;;12.70;99.90;;;;;;8374140;28;20193;-74
2023/03/10 09:43:37;;;;;;;2.17;0.93;;;13.00;99.90;;;;;;8374434;28;20202;-71
2023/03/10 09:48:31;;;;;;;2.10;1.10;;;13.20;99.90;;;;;;8374228;28;20181;-73
2023/03/10 09:52:33;;;;;;;2.77;1.13;;;13.20;99.90;;;;;;8333746;28;20190;-74
2023/03/10 09:56:35;;;;;;;2.13;0.97;;;13.20;99.90;;;;;;8372001;28;20185;-72
2023/03/10 10:00:40;;;;;;;1.73;1.00;;;13.20;99.90;;;;;;8375620;28;20178;-73
2023/03/10 10:04:42;;;;;;;1.93;0.90;;;13.30;99.90;;;;;;8371026;28;20182;-76
2023/03/10 10:09:20;;;;;;;2.23;0.73;;;13.50;99.90;;;;;;8368050;28;20216;-73
2023/03/10 10:13:24;;;;;;;3.53;0.90;;;13.60;99.90;;;;;;8373070;28;20341;-75
2023/03/10 10:17:43;;;;;;;2.57;0.90;;;13.70;99.90;;;;;;8370869;28;20182;-74
2023/03/10 10:21:53;;;;;;;3.07;0.80;;;13.90;99.90;;;;;;8365105;28;20417;-73
2023/03/10 10:25:53;;;;;;;1.60;0.90;;;14.20;99.90;;;;;;8371957;28;20185;-74
2023/03/10 10:29:54;;;;;;;3.03;0.93;;;14.20;99.90;;;;;;8366695;28;20217;-73
2023/03/10 10:34:19;;;;;;;1.90;1.03;;;14.00;99.90;;;;;;8367623;28;20195;-72
2023/03/10 10:38:26;;;;;;;2.43;0.83;;;13.80;99.90;;;;;;8368534;28;20208;-73
2023/03/10 10:42:30;;;;;;;2.83;1.10;;;14.00;99.90;;;;;;8369662;28;20190;-72
2023/03/10 10:46:31;;;;;;;3.77;1.10;;;14.10;99.90;;;;;;8369151;28;20169;-71
2023/03/10 10:50:34;;;;;;;1.77;1.00;;;13.90;99.90;;;;;;8374690;28;20205;-73
2023/03/10 10:54:39;;;;;;;1.97;1.10;;;14.00;99.90;;;;;;8374663;28;20178;-73
2023/03/10 10:58:42;;;;;;;2.43;0.90;;;14.10;99.90;;;;;;8373828;28;20182;-72
2023/03/10 11:02:44;;;;;;;3.00;1.03;;;14.30;99.90;;;;;;8383869;28;20208;-75
2023/03/10 11:06:45;;;;;;;2.57;1.10;;;14.40;99.40;;;;;;8369554;28;20272;-72
2023/03/10 11:10:54;;;;;;;2.37;1.07;;;14.80;95.50;;;;;;8367697;28;20224;-73
2023/03/10 11:15:21;;;;;;;2.17;0.93;;;14.80;63.90;;;;;;8373795;28;20181;-73
2023/03/10 11:19:49;;;;;;;1.77;0.77;;;14.70;89.40;;;;;;8372083;28;20319;-73
2023/03/10 11:24:21;;;;;;;1.10;0.73;;;14.60;90.50;;;;;;8370902;28;20185;-72
2023/03/10 11:28:45;;;;;;;2.50;0.70;;;14.70;64.90;;;;;;8373995;28;20247;-73
2023/03/10 11:33:01;;;;;;;2.43;0.83;;;14.60;55.40;;;;;;8381049;28;20177;-73
2023/03/10 11:37:14;;;;;;;1.60;0.90;;;14.70;57.80;;;;;;8370981;28;20241;-72
2023/03/10 11:41:26;;;;;;;1.80;0.70;;;14.80;42.10;;;;;;8389963;28;20189;-73
2023/03/10 11:45:36;;;;;;;1.20;0.93;;;15.00;41.80;;;;;;8379218;28;20210;-74
2023/03/10 11:49:39;;;;;;;3.87;1.57;;;15.00;33.40;;;;;;8372924;28;20595;-72
2023/03/10 11:53:57;;;;;;;2.17;1.03;;;15.00;28.50;;;;;;8379093;28;20174;-75
2023/03/10 11:57:59;;;;;;;2.83;0.80;;;15.10;35.00;;;;;;8375530;28;20184;-74
2023/03/10 12:02:20;;;;;;;1.57;0.93;;;15.20;27.40;;;;;;8391588;28;20189;-73
2023/03/10 12:06:33;;;;;;;4.67;1.00;;;15.20;25.80;;;;;;8380255;28;20247;-74
2023/03/10 12:10:38;;;;;;;1.60;1.00;;;15.00;30.60;;;;;;8384282;28;20206;-75
2023/03/10 12:14:41;;;;;;;0.83;0.60;;;15.00;25.70;;;;;;8379933;28;20193;-72
2023/03/10 12:18:42;;;;;;;1.23;0.60;;;15.10;26.30;;;;;;8383810;28;20196;-73
2023/03/10 12:23:06;;;;;;;1.37;0.60;;;15.30;22.30;;;;;;8382518;28;20184;-75
2023/03/10 12:27:07;;;;;;;1.67;0.80;;;15.30;30.80;;;;;;8368406;28;20228;-75
2023/03/10 12:31:34;;;;;;;0.93;0.60;;;15.40;30.80;;;;;;8392306;28;20316;-76
2023/03/10 12:35:45;;;;;;;1.53;0.80;;;15.60;26.70;;;;;;8377189;28;20210;-75
2023/03/10 12:39:46;;;;;;;2.77;1.03;;;16.00;29.10;;;;;;8375187;28;20193;-73
2023/03/10 12:43:56;;;;;;;1.80;0.93;;;16.30;18.20;;;;;;8380158;28;20217;-73
2023/03/10 12:48:21;;;;;;;2.03;0.97;;;16.40;15.70;;;;;;8376603;28;20190;-73
2023/03/10 12:52:43;;;;;;;2.53;0.90;;;16.70;1.00;;;;;;8377953;28;20297;-76
2023/03/10 12:57:09;;;;;;;1.63;0.80;;;16.80;2.00;;;;;;8376075;28;20178;-74
2023/03/10 13:01:16;;;;;;;0.90;0.60;;;16.80;1.00;;;;;;8379265;28;20284;-75
2023/03/10 13:05:21;;;;;;;1.37;0.70;;;16.50;1.00;;;;;;8377952;28;20214;-73
2023/03/10 13:09:41;;;;;;;1.50;0.67;;;16.20;1.00;;;;;;8378437;28;20217;-74
2023/03/10 13:13:42;;;;;;;2.57;0.60;;;16.00;1.00;;;;;;8375657;28;20182;-75
2023/03/10 13:17:43;;;;;;;1.10;0.80;;;16.10;1.00;;;;;;8381680;28;20208;-73
2023/03/10 13:21:44;;;;;;;0.90;0.50;;;16.10;1.00;;;;;;8374762;28;20193;-75
2023/03/10 13:25:57;;;;;;;1.90;0.90;;;16.00;1.00;;;;;;8379431;28;20249;-75
2023/03/10 13:30:20;;;;;;;1.50;0.63;;;15.90;1.00;;;;;;8375382;28;20220;-76
2023/03/10 13:34:26;;;;;;;1.60;0.67;;;15.90;1.00;;;;;;8371723;28;20182;-76
2023/03/10 13:38:29;;;;;;;1.53;0.70;;;15.80;1.00;;;;;;8368590;28;20266;-76
2023/03/10 13:42:30;;;;;;;0.90;0.57;;;15.80;1.00;;;;;;8375488;28;20384;-75
2023/03/10 13:46:33;;;;;;;1.70;0.80;;;15.80;1.00;;;;;;8385657;28;20389;-75
2023/03/10 13:50:33;;;;;;;2.43;0.73;;;15.90;1.00;;;;;;8373926;28;20230;-76
2023/03/10 13:54:37;;;;;;;2.10;0.63;;;16.00;1.00;;;;;;8370274;28;20249;-76
2023/03/10 13:58:38;;;;;;;2.20;1.07;;;16.00;1.00;;;;;;8371869;28;20303;-76
2023/03/10 14:02:40;;;;;;;3.40;1.37;;;15.80;1.00;;;;;;8372901;28;20283;-77
2023/03/10 14:06:41;;;;;;;2.40;0.87;;;15.60;1.00;;;;;;8371941;28;20181;-76
2023/03/10 14:10:42;;;;;;;1.33;0.87;;;15.60;1.00;;;;;;8374767;28;20228;-74
2023/03/10 14:14:43;;;;;;;3.33;0.90;;;15.70;1.00;;;;;;8375329;28;20185;-74
2023/03/10 14:18:44;;;;;;;2.17;0.70;;;15.80;1.00;;;;;;8375810;28;20188;-77
2023/03/10 14:22:45;;;;;;;1.73;0.97;;;15.70;1.00;;;;;;8378693;28;20174;-76
2023/03/10 14:26:46;;;;;;;1.50;0.60;;;15.50;1.00;;;;;;8374722;28;20225;-75
2023/03/10 14:30:47;;;;;;;1.53;0.77;;;15.40;1.00;;;;;;8372770;28;20212;-75
2023/03/10 14:34:48;;;;;;;1.90;0.77;;;15.40;1.00;;;;;;8369318;28;20276;-76
2023/03/10 14:38:49;;;;;;;1.60;0.67;;;15.20;1.00;;;;;;8377584;28;20283;-75
2023/03/10 14:42:51;;;;;;;1.50;0.80;;;15.00;1.00;;;;;;8375674;28;20204;-75
2023/03/10 14:46:52;;;;;;;2.57;1.10;;;14.70;1.00;;;;;;8373947;28;20194;-75
2023/03/10 14:50:54;;;;;;;1.60;0.77;;;14.40;1.00;;;;;;8368987;28;20219;-75
2023/03/10 14:54:54;;;;;;;2.63;0.90;;;14.30;1.00;;;;;;8377517;28;20184;-74
2023/03/10 14:58:57;;;;;;;1.00;0.70;;;14.20;1.30;;;;;;8374876;28;20188;-76
2023/03/10 15:02:58;;;;;;;1.87;0.80;;;14.10;9.40;;;;;;8370327;28;20243;-74
2023/03/10 15:06:59;;;;;;;2.47;0.93;;;14.10;13.80;;;;;;8365502;28;20198;-76
2023/03/10 15:11:01;;;;;;;1.70;0.73;;;14.10;20.30;;;;;;8373965;28;20508;-77
2023/03/10 15:15:02;;;;;;;1.83;0.93;;;14.10;20.00;;;;;;8378495;28;20185;-75
2023/03/10 15:19:03;;;;;;;2.63;1.00;;;14.00;20.70;;;;;;8371359;28;20189;-74
2023/03/10 15:23:04;;;;;;;1.63;1.07;;;13.90;24.40;;;;;;8366877;28;20186;-74
2023/03/10 15:27:05;;;;;;;1.27;0.70;;;13.90;22.50;;;;;;8378531;28;20185;-76
2023/03/10 15:31:06;;;;;;;1.87;0.80;;;13.90;26.30;;;;;;8382067;28;20274;-75
2023/03/10 15:35:07;;;;;;;1.40;0.90;;;13.80;23.00;;;;;;8375281;28;20201;-74
2023/03/10 15:39:08;;;;;;;4.33;1.20;;;13.80;25.90;;;;;;8372652;28;20185;-75
2023/03/10 15:43:09;;;;;;;2.53;0.97;;;13.70;26.60;;;;;;8375637;28;20200;-75
2023/03/10 15:47:10;;;;;;;2.07;1.10;;;13.60;28.40;;;;;;8377285;28;20189;-76
2023/03/10 15:51:16;;;;;;;2.30;0.80;;;13.50;26.40;;;;;;8370842;28;20289;-73
2023/03/10 15:55:18;;;;;;;3.07;1.07;;;13.40;37.00;;;;;;8375474;28;20182;-73
2023/03/10 15:59:18;;;;;;;1.50;0.90;;;13.20;48.30;;;;;;8375894;28;20185;-75
2023/03/10 16:03:19;;;;;;;4.57;1.67;;;13.00;61.60;;;;;;8381104;28;20193;-76
2023/03/10 16:07:20;;;;;;;2.83;1.53;;;12.80;89.60;;;;;;8377671;28;20268;-73
2023/03/10 16:11:21;;;;;;;1.43;0.80;;;12.60;99.90;;;;;;8375333;28;20638;-73
2023/03/10 16:15:22;;;;;;;1.70;0.90;;;12.40;99.90;;;;;;8373263;28;20490;-75
2023/03/10 16:19:24;;;;;;;3.50;1.70;;;12.30;99.90;;;;;;8377377;28;20229;-75
2023/03/10 16:23:26;;;;;;;3.97;2.27;;;12.00;99.90;;;;;;8381219;28;20502;-75
2023/03/10 16:27:27;;;;;;;5.17;2.70;;;11.90;99.90;;;;;;8377665;28;20188;-75
2023/03/10 16:31:28;;;;;;;6.43;2.40;;;11.80;99.90;;;;;;8375581;28;20255;-74
2023/03/10 16:35:30;;;;;;;5.23;3.00;;;11.80;99.90;;;;;;8376488;28;20198;-75
2023/03/10 16:39:31;;;;;;;4.07;1.90;;;11.70;99.90;;;;;;8372748;28;20235;-74
2023/03/10 16:43:32;;;;;;;4.07;1.50;;;11.70;99.90;;;;;;8371404;28;20201;-75
2023/03/10 16:47:33;;;;;;;3.27;1.00;;;11.60;99.90;;;;;;8368936;28;20198;-76
2023/03/10 16:51:40;;;;;;;2.47;1.23;;;11.60;99.90;;;;;;8368265;28;20220;-75
2023/03/10 16:55:41;;;;;;;0.80;0.57;;;11.40;99.90;;;;;;8371880;28;20267;-76
2023/03/10 16:59:43;;;;;;;1.60;0.67;;;11.20;99.90;;;;;;8370578;28;20189;-73
2023/03/10 17:03:45;;;;;;;1.30;0.60;;;10.90;1.00;;;;;;8375069;28;20186;-73
2023/03/10 17:07:46;;;;;;;1.50;0.70;;;10.60;82.70;;;;;;8377808;28;20264;-74
2023/03/10 17:11:50;;;;;;;1.30;0.70;;;10.20;99.90;;;;;;8375396;28;20209;-75
2023/03/10 17:15:51;;;;;;;2.17;0.70;;;9.90;1.00;;;;;;8382068;28;20188;-76
2023/03/10 17:19:52;;;;;;;1.53;0.83;;;9.60;1.00;;;;;;8377417;28;20200;-71
2023/03/10 17:23:54;;;;;;;1.27;0.70;;;9.50;1.00;;;;;;8371006;28;20217;-72
2023/03/10 17:27:54;;;;;;;1.03;0.80;;;9.30;85.30;;;;;;8371939;28;20254;-71
2023/03/10 17:31:55;;;;;;;1.40;0.80;;;9.20;99.90;;;;;;8369372;28;20216;-69
2023/03/10 17:35:56;;;;;;;2.03;0.97;;;9.10;99.90;;;;;;8364888;28;20211;-72
2023/03/10 17:39:57;;;;;;;1.40;1.00;;;9.00;99.90;;;;;;8365608;28;20215;-70
2023/03/10 17:43:58;;;;;;;1.10;0.70;;;8.90;99.90;;;;;;8363709;28;20196;-71
2023/03/10 17:47:59;;;;;;;1.53;0.90;;;8.90;99.90;;;;;;8362728;28;20198;-71
2023/03/10 17:52:00;;;;;;;2.13;0.90;;;8.90;99.90;;;;;;8364834;28;20221;-72
2023/03/10 17:56:04;;;;;;;2.40;0.77;;;8.90;99.90;;;;;;8368062;28;20221;-72
2023/03/10 18:00:06;;;;;;;4.03;1.37;;;8.90;99.90;;;;;;8362253;28;20191;-71
2023/03/10 18:04:07;;;;;;;2.93;1.90;;;8.80;99.90;;;;;;8360603;28;20251;-73
2023/03/10 18:08:09;;;;;;;3.27;1.93;;;8.80;99.90;;;;;;8370145;28;20248;-70
2023/03/10 18:12:09;;;;;;;3.03;2.00;;;8.60;99.90;;;;;;8363649;28;20706;-71
2023/03/10 18:16:24;;;;;;;5.53;1.93;;;8.40;99.90;;;;;;8361603;28;20227;-72
2023/03/10 18:20:25;;;;;;;2.83;1.47;;;8.20;1.00;;;;;;8363024;28;20182;-70
2023/03/10 18:24:26;;;;;;;2.33;1.73;;;8.10;18.60;;;;;;8366111;28;20251;-70
2023/03/10 18:28:27;;;;;;;3.23;2.00;;;8.00;80.00;;;;;;8362234;28;20185;-70
2023/03/10 18:32:29;;;;;;;4.13;2.23;;;7.90;99.90;;;;;;8364405;28;20196;-71
2023/03/10 18:36:31;;;;;;;3.83;2.60;;;8.00;1.00;;;;;;8355099;28;20197;-71
2023/03/10 18:40:32;;;;;;;4.10;2.83;;;8.00;99.90;;;;;;8366989;28;20195;-69
2023/03/10 18:44:33;;;;;;;4.60;2.90;;;7.90;99.90;;;;;;8363518;28;20201;-69
2023/03/10 18:48:34;;;;;;;5.30;3.17;;;7.70;99.90;;;;;;8366893;28;20188;-71
2023/03/10 18:52:36;;;;;;;5.57;3.23;;;7.50;99.90;;;;;;8363046;28;20190;-69
2023/03/10 18:56:37;;;;;;;4.83;3.20;;;7.20;99.90;;;;;;8364716;28;20181;-71
2023/03/10 19:00:38;;;;;;;4.10;2.80;;;7.00;99.90;;;;;;8365622;28;20185;-72
2023/03/10 19:04:39;;;;;;;5.33;3.50;;;6.90;1.00;;;;;;8365633;28;20185;-72
2023/03/10 19:08:40;;;;;;;5.17;3.53;;;6.80;1.00;;;;;;8369768;28;20245;-72
2023/03/10 19:12:41;;;;;;;5.17;3.50;;;6.60;99.90;;;;;;8375601;28;20220;-71
2023/03/10 19:16:43;;;;;;;5.33;3.87;;;6.50;99.90;;;;;;8372270;28;20193;-72
2023/03/10 19:20:45;;;;;;;5.77;4.00;;;6.50;99.90;;;;;;8370768;28;20181;-72
2023/03/10 19:24:46;;;;;;;6.47;4.13;;;6.40;99.90;;;;;;8368625;28;20204;-71
2023/03/10 19:28:47;;;;;;;6.07;3.93;;;6.30;1.00;;;;;;8369338;28;20541;-70
2023/03/10 19:32:48;;;;;;;7.07;3.83;;;6.30;1.00;;;;;;8367153;28;20564;-71
2023/03/10 19:36:48;;;;;;;6.13;3.73;;;6.20;99.90;;;;;;8367815;28;20205;-71
2023/03/10 19:40:49;;;;;;;4.53;3.67;;;6.20;1.00;;;;;;8371086;28;20192;-71
2023/03/10 19:44:50;;;;;;;5.57;3.47;;;6.10;1.00;;;;;;8370318;28;20215;-71
2023/03/10 19:48:51;;;;;;;5.23;3.60;;;6.10;1.00;;;;;;8362148;28;20213;-72
2023/03/10 19:52:52;;;;;;;4.87;3.10;;;6.00;1.00;;;;;;8375810;28;20188;-71
2023/03/10 19:56:53;;;;;;;6.50;3.60;;;6.00;99.90;;;;;;8370550;28;20285;-69
2023/03/10 20:00:56;;;;;;;6.00;4.20;;;6.00;99.90;;;;;;8372385;28;20189;-70
2023/03/10 20:04:57;;;;;;;4.43;3.13;;;6.00;99.90;;;;;;8372604;28;20197;-70
2023/03/10 20:08:59;;;;;;;4.90;3.50;;;6.00;99.90;;;;;;8368789;28;20209;-71
2023/03/10 20:13:00;;;;;;;4.73;3.30;;;6.00;99.90;;;;;;8371150;28;20471;-72
2023/03/10 20:17:01;;;;;;;4.17;3.07;;;6.10;1.00;;;;;;8368817;28;20655;-71
2023/03/10 20:21:02;;;;;;;4.17;3.20;;;6.20;1.00;;;;;;8371885;28;20181;-72
2023/03/10 20:25:04;;;;;;;5.03;2.40;;;6.20;1.00;;;;;;8363713;28;20185;-72
2023/03/10 20:29:05;;;;;;;4.70;2.73;;;6.20;99.90;;;;;;8365927;28;20209;-72
2023/03/10 20:33:07;;;;;;;4.60;2.70;;;6.20;99.90;;;;;;8367393;28;20181;-69
2023/03/10 20:37:08;;;;;;;3.27;2.37;;;6.20;99.90;;;;;;8364849;28;20206;-71
2023/03/10 20:41:11;;;;;;;2.70;2.20;;;6.20;99.90;;;;;;8372500;28;20249;-69
2023/03/10 20:45:12;;;;;;;3.63;2.77;;;6.20;99.90;;;;;;8365186;28;20283;-73
2023/03/10 20:49:13;;;;;;;3.03;2.67;;;6.30;99.90;;;;;;8364142;28;20200;-70
2023/03/10 20:53:14;;;;;;;3.07;2.37;;;6.30;99.90;;;;;;8364154;28;20189;-71
2023/03/10 20:57:15;;;;;;;3.33;2.57;;;6.40;1.00;;;;;;8367240;28;20261;-69
2023/03/10 21:01:18;;;;;;;3.17;2.50;;;6.40;99.90;;;;;;8369346;28;20185;-72
2023/03/10 21:05:20;;;;;;;4.83;2.57;;;6.30;62.00;;;;;;8370421;28;20185;-71
2023/03/10 21:09:21;;;;;;;3.40;2.40;;;6.20;99.90;;;;;;8364811;28;20201;-71
2023/03/10 21:13:22;;;;;;;4.10;2.30;;;6.20;1.00;;;;;;8365418;28;20244;-70